createdAt,value
2019-03-26T00:01:09.478Z,5.80
2019-03-26T00:03:40.346Z,8.25
2019-03-26T00:06:11.131Z,7.10
2019-03-26T00:08:41.992Z,7.72
2019-03-26T00:11:12.804Z,7.10
2019-03-26T00:13:43.781Z,8.53
2019-03-26T00:16:14.770Z,6.20
2019-03-26T00:18:48.915Z,7.13
2019-03-26T00:21:20.062Z,9.95
2019-03-26T00:23:50.871Z,6.83
2019-03-26T00:26:21.708Z,7.60
2019-03-26T00:28:53.111Z,7.37
2019-03-26T00:31:24.331Z,7.65
2019-03-26T00:33:55.129Z,9.15
2019-03-26T00:38:56.475Z,10.10
2019-03-26T00:41:27.280Z,8.60
2019-03-26T00:43:58.204Z,9.77
2019-03-26T00:46:29.049Z,7.27
2019-03-26T00:48:59.883Z,8.20
2019-03-26T00:51:31.414Z,7.47
2019-03-26T00:54:02.549Z,7.47
2019-03-26T00:56:33.369Z,8.10
2019-03-26T00:59:04.122Z,9.00
2019-03-26T01:01:35.265Z,10.80
2019-03-26T01:04:06.582Z,8.55
2019-03-26T01:06:37.704Z,9.65
2019-03-26T01:09:08.690Z,7.97
2019-03-26T01:11:39.428Z,9.97
2019-03-26T01:14:10.555Z,10.15
2019-03-26T01:16:41.402Z,11.12
2019-03-26T01:19:12.336Z,9.50
2019-03-26T01:21:43.205Z,11.85
2019-03-26T01:24:14.145Z,9.73
2019-03-26T01:26:46.340Z,9.78
2019-03-26T01:29:17.089Z,9.23
2019-03-26T01:31:47.966Z,9.20
2019-03-26T01:34:18.991Z,10.53
2019-03-26T01:36:50.497Z,10.08
2019-03-26T01:39:21.570Z,9.63
2019-03-26T01:41:53.595Z,11.40
2019-03-26T01:44:24.388Z,10.63
2019-03-26T01:46:56.121Z,10.67
2019-03-26T01:49:26.947Z,9.83
2019-03-26T01:51:58.232Z,11.33
2019-03-26T01:54:29.449Z,11.03
2019-03-26T01:57:00.271Z,12.40
2019-03-26T01:59:31.960Z,10.67
2019-03-26T02:02:02.695Z,10.10
2019-03-26T02:04:33.430Z,10.58
2019-03-26T02:07:04.301Z,11.85
2019-03-26T02:09:35.559Z,10.27
2019-03-26T02:12:06.437Z,12.40
2019-03-26T02:14:37.365Z,9.68
2019-03-26T02:17:08.146Z,11.93
2019-03-26T02:19:38.885Z,11.45
2019-03-26T02:22:09.725Z,10.80
2019-03-26T02:24:40.491Z,12.37
2019-03-26T02:27:12.104Z,11.57
2019-03-26T02:32:12.764Z,10.55
2019-03-26T02:34:43.630Z,10.82
2019-03-26T02:39:44.894Z,12.68
2019-03-26T02:42:16.106Z,10.80
2019-03-26T02:44:47.264Z,11.00
2019-03-26T02:47:18.268Z,12.53
2019-03-26T02:49:49.128Z,12.88
2019-03-26T02:52:19.906Z,12.68
2019-03-26T02:54:51.138Z,10.70
2019-03-26T02:57:22.028Z,14.40
2019-03-26T02:59:53.807Z,13.80
2019-03-26T03:04:54.362Z,12.47
2019-03-26T03:07:25.234Z,13.65
2019-03-26T03:09:57.167Z,13.03
2019-03-26T03:12:29.936Z,11.95
2019-03-26T03:15:00.830Z,13.65
2019-03-26T03:17:31.775Z,12.07
2019-03-26T03:20:02.687Z,12.68
2019-03-26T03:22:34.241Z,12.25
2019-03-26T03:25:05.168Z,12.25
2019-03-26T03:27:36.034Z,14.30
2019-03-26T03:30:08.253Z,11.45
2019-03-26T03:32:39.611Z,10.48
2019-03-26T03:35:10.864Z,11.78
2019-03-26T03:37:41.740Z,12.75
2019-03-26T03:40:12.741Z,12.43
2019-03-26T03:42:43.716Z,10.08
2019-03-26T03:45:16.456Z,11.18
2019-03-26T03:47:47.788Z,11.15
2019-03-26T03:50:19.348Z,11.33
2019-03-26T03:52:51.181Z,10.48
2019-03-26T03:57:55.951Z,12.30
2019-03-26T04:00:34.668Z,13.08
2019-03-26T04:03:06.610Z,10.72
2019-03-26T04:05:38.078Z,13.20
2019-03-26T04:08:09.241Z,10.43
2019-03-26T04:10:41.141Z,10.53
2019-03-26T04:15:41.896Z,11.48
2019-03-26T04:18:12.703Z,11.00
2019-03-26T04:20:43.532Z,12.60
2019-03-26T04:23:14.450Z,13.27
2019-03-26T04:25:45.454Z,12.23
2019-03-26T04:28:16.370Z,12.68
2019-03-26T04:30:47.298Z,10.53
2019-03-26T04:33:18.232Z,11.13
2019-03-26T04:35:49.183Z,10.93
2019-03-26T04:38:20.005Z,10.90
2019-03-26T04:40:50.810Z,12.60
2019-03-26T04:43:22.045Z,11.73
2019-03-26T04:45:52.937Z,10.78
2019-03-26T04:48:23.782Z,12.30
2019-03-26T04:50:54.829Z,10.38
2019-03-26T04:53:25.619Z,11.12
2019-03-26T04:55:56.858Z,11.37
2019-03-26T04:58:28.493Z,11.80
2019-03-26T05:00:59.425Z,10.60
2019-03-26T05:03:30.308Z,10.35
2019-03-26T05:06:01.122Z,11.27
2019-03-26T05:08:32.423Z,10.65
2019-03-26T05:11:03.213Z,10.32
2019-03-26T05:13:35.199Z,11.20
2019-03-26T05:16:06.521Z,9.95
2019-03-26T05:18:37.368Z,12.07
2019-03-26T05:21:08.488Z,10.77
2019-03-26T05:23:39.630Z,11.78
2019-03-26T05:26:11.137Z,10.75
2019-03-26T05:28:42.516Z,10.82
2019-03-26T05:31:13.667Z,11.38
2019-03-26T05:33:45.817Z,10.43
2019-03-26T05:36:17.554Z,9.80
2019-03-26T05:38:48.336Z,11.28
2019-03-26T05:41:19.150Z,11.20
2019-03-26T05:43:50.347Z,10.70
2019-03-26T05:46:21.516Z,10.23
2019-03-26T05:48:52.291Z,9.53
2019-03-26T05:53:53.648Z,10.90
2019-03-26T05:56:24.847Z,10.28
2019-03-26T05:58:55.998Z,9.15
2019-03-26T06:01:26.860Z,9.63
2019-03-26T06:03:58.144Z,8.57
2019-03-26T06:06:29.304Z,7.97
2019-03-26T06:09:00.153Z,10.90
2019-03-26T06:11:31.438Z,8.77
2019-03-26T06:14:02.718Z,10.08
2019-03-26T06:16:38.477Z,10.78
2019-03-26T06:19:07.311Z,9.35
2019-03-26T06:21:38.959Z,8.93
2019-03-26T06:24:11.078Z,8.88
2019-03-26T06:26:42.191Z,8.03
2019-03-26T06:29:14.344Z,8.30
2019-03-26T06:31:45.447Z,10.13
2019-03-26T06:34:16.338Z,9.48
2019-03-26T06:36:48.420Z,11.40
2019-03-26T06:39:19.293Z,10.05
2019-03-26T06:41:50.383Z,8.13
2019-03-26T06:44:21.979Z,9.53
2019-03-26T06:46:54.295Z,10.98
2019-03-26T06:52:16.469Z,10.18
2019-03-26T06:54:48.017Z,10.98
2019-03-26T06:57:19.180Z,11.45
2019-03-26T06:59:50.006Z,10.95
2019-03-26T07:02:20.925Z,10.10
2019-03-26T07:04:52.357Z,11.65
2019-03-26T07:07:31.526Z,9.53
2019-03-26T07:09:57.185Z,10.95
2019-03-26T07:12:28.491Z,11.50
2019-03-26T07:14:59.649Z,12.10
2019-03-26T07:17:30.753Z,13.93
2019-03-26T07:20:02.074Z,11.78
2019-03-26T07:22:33.388Z,14.55
2019-03-26T07:25:04.560Z,13.35
2019-03-26T07:27:35.895Z,12.98
2019-03-26T07:30:07.625Z,13.15
2019-03-26T07:32:38.994Z,15.53
2019-03-26T07:35:10.126Z,12.73
2019-03-26T07:37:45.593Z,13.78
2019-03-26T07:40:13.825Z,12.93
2019-03-26T07:42:45.093Z,15.20
2019-03-26T07:45:16.786Z,13.40
2019-03-26T07:47:47.685Z,14.23
2019-03-26T07:50:18.628Z,14.50
2019-03-26T07:52:49.460Z,14.38
2019-03-26T07:55:20.842Z,10.13
2019-03-26T07:57:51.656Z,11.28
2019-03-26T08:00:32.397Z,8.17
2019-03-26T08:03:03.360Z,9.30
2019-03-26T08:05:34.487Z,11.03
2019-03-26T08:08:05.984Z,9.20
2019-03-26T08:10:36.810Z,11.43
2019-03-26T08:13:07.785Z,12.87
2019-03-26T08:15:38.943Z,10.78
2019-03-26T08:18:10.099Z,10.43
2019-03-26T08:20:40.932Z,10.20
2019-03-26T08:23:12.147Z,10.08
2019-03-26T08:25:43.756Z,8.68
2019-03-26T08:28:14.984Z,9.35
2019-03-26T08:30:46.019Z,9.85
2019-03-26T08:33:17.226Z,7.10
2019-03-26T08:35:48.371Z,10.43
2019-03-26T08:38:19.243Z,8.40
2019-03-26T08:40:50.774Z,8.45
2019-03-26T08:43:21.901Z,9.40
2019-03-26T08:45:53.178Z,9.98
2019-03-26T08:48:24.574Z,9.88
2019-03-26T08:50:55.364Z,10.80
2019-03-26T08:53:26.226Z,11.47
2019-03-26T08:55:57.136Z,12.33
2019-03-26T08:58:28.001Z,9.30
2019-03-26T09:00:58.962Z,10.37
2019-03-26T09:03:30.465Z,8.30
2019-03-26T09:06:01.448Z,8.43
2019-03-26T09:11:14.694Z,8.93
2019-03-26T09:13:46.134Z,10.05
2019-03-26T09:16:17.108Z,9.08
2019-03-26T09:18:48.679Z,8.43
2019-03-26T09:21:19.459Z,10.45
2019-03-26T09:23:51.051Z,8.95
2019-03-26T09:26:21.957Z,8.60
2019-03-26T09:28:53.001Z,13.77
2019-03-26T09:31:24.507Z,7.83
2019-03-26T09:33:55.599Z,8.15
2019-03-26T09:36:26.421Z,10.53
2019-03-26T09:38:57.305Z,8.60
2019-03-26T09:41:28.571Z,9.00
2019-03-26T09:43:59.811Z,10.40
2019-03-26T09:46:30.655Z,9.55
2019-03-26T09:49:02.375Z,8.08
2019-03-26T09:51:33.628Z,9.50
2019-03-26T09:54:05.718Z,7.22
2019-03-26T09:56:37.022Z,11.10
2019-03-26T09:59:08.781Z,10.03
2019-03-26T10:01:40.415Z,9.00
2019-03-26T10:04:11.566Z,10.10
2019-03-26T10:06:43.052Z,7.95
2019-03-26T10:09:14.590Z,7.92
2019-03-26T10:11:46.766Z,9.58
2019-03-26T10:14:17.750Z,8.15
2019-03-26T10:16:48.919Z,13.23
2019-03-26T10:19:20.080Z,11.97
2019-03-26T10:21:51.364Z,7.78
2019-03-26T10:24:22.586Z,8.23
2019-03-26T10:26:53.834Z,8.95
2019-03-26T10:29:30.598Z,6.60
2019-03-26T10:31:57.750Z,5.00
2019-03-26T10:34:29.812Z,7.40
2019-03-26T10:37:01.349Z,8.25
2019-03-26T10:39:32.282Z,5.83
2019-03-26T10:42:03.246Z,6.47
2019-03-26T10:44:34.065Z,6.53
2019-03-26T10:47:05.212Z,6.97
2019-03-26T10:49:36.042Z,4.28
2019-03-26T10:52:07.343Z,4.95
2019-03-26T10:54:38.160Z,5.95
2019-03-26T10:57:09.092Z,5.67
2019-03-26T10:59:40.397Z,7.40
2019-03-26T11:02:11.171Z,8.60
2019-03-26T11:04:42.031Z,5.25
2019-03-26T11:07:13.148Z,7.13
2019-03-26T11:09:44.156Z,4.87
2019-03-26T11:12:15.069Z,5.93
2019-03-26T11:14:46.485Z,5.87
2019-03-26T11:17:17.813Z,5.75
2019-03-26T11:19:48.932Z,7.45
2019-03-26T11:22:20.093Z,6.03
2019-03-26T11:24:51.900Z,5.25
2019-03-26T11:27:22.994Z,7.17
2019-03-26T11:29:53.743Z,5.20
2019-03-26T11:32:24.855Z,5.08
2019-03-26T11:34:56.051Z,5.40
2019-03-26T11:37:26.815Z,5.17
2019-03-26T11:39:58.373Z,5.70
2019-03-26T11:42:29.147Z,7.95
2019-03-26T11:45:00.598Z,7.05
2019-03-26T11:47:32.187Z,6.83
2019-03-26T11:50:04.806Z,6.40
2019-03-26T11:52:36.567Z,5.92
2019-03-26T11:55:08.606Z,8.35
2019-03-26T11:57:39.903Z,6.47
2019-03-26T12:00:11.525Z,5.25
2019-03-26T12:02:42.964Z,6.90
2019-03-26T12:05:14.035Z,6.50
2019-03-26T12:07:46.530Z,7.37
2019-03-26T12:10:17.866Z,5.58
2019-03-26T12:12:49.073Z,6.85
2019-03-26T12:15:20.421Z,8.63
2019-03-26T12:17:52.189Z,6.03
2019-03-26T12:22:52.894Z,6.35
2019-03-26T12:25:24.388Z,7.05
2019-03-26T12:27:55.651Z,8.23
2019-03-26T12:30:37.229Z,6.40
2019-03-26T12:33:10.195Z,8.90
2019-03-26T12:35:41.091Z,7.87
2019-03-26T12:38:21.726Z,7.00
2019-03-26T12:40:53.387Z,6.50
2019-03-26T12:43:24.602Z,5.67
2019-03-26T12:45:55.526Z,5.72
2019-03-26T12:50:58.591Z,6.93
2019-03-26T12:53:29.740Z,5.90
2019-03-26T12:56:00.544Z,7.12
2019-03-26T12:58:36.057Z,5.80
2019-03-26T13:01:05.571Z,6.15
2019-03-26T13:03:36.490Z,7.33
2019-03-26T13:06:07.356Z,6.50
2019-03-26T13:08:39.683Z,5.03
2019-03-26T13:11:10.990Z,5.97
2019-03-26T13:13:42.219Z,6.80
2019-03-26T13:16:17.260Z,5.75
2019-03-26T13:18:48.940Z,5.70
2019-03-26T13:21:20.440Z,6.37
2019-03-26T13:23:52.275Z,5.55
2019-03-26T13:26:23.364Z,5.17
2019-03-26T13:28:54.835Z,7.05
2019-03-26T13:31:25.779Z,5.22
2019-03-26T13:33:56.617Z,5.53
2019-03-26T13:36:27.727Z,6.37
2019-03-26T13:38:58.588Z,4.87
2019-03-26T13:41:29.723Z,4.12
2019-03-26T13:44:01.382Z,6.90
2019-03-26T13:49:02.667Z,8.13
2019-03-26T13:51:36.928Z,8.15
2019-03-26T13:54:06.667Z,7.00
2019-03-26T13:56:37.517Z,5.58
2019-03-26T13:59:08.471Z,7.00
2019-03-26T14:01:39.579Z,4.77
2019-03-26T14:04:13.041Z,8.68
2019-03-26T14:06:44.304Z,5.65
2019-03-26T14:09:15.430Z,6.25
2019-03-26T14:11:46.719Z,4.87
2019-03-26T14:14:18.054Z,6.08
2019-03-26T14:16:49.117Z,5.90
2019-03-26T14:19:20.212Z,6.45
2019-03-26T14:21:51.428Z,5.72
2019-03-26T14:24:22.788Z,5.37
2019-03-26T14:26:53.908Z,6.40
2019-03-26T14:29:25.989Z,7.72
2019-03-26T14:31:57.192Z,8.20
2019-03-26T14:34:28.653Z,5.22
2019-03-26T14:36:59.471Z,6.70
2019-03-26T14:39:30.717Z,5.97
2019-03-26T14:42:02.149Z,9.15
2019-03-26T14:44:33.053Z,6.22
2019-03-26T14:47:04.900Z,6.57
2019-03-26T14:52:07.022Z,5.45
2019-03-26T14:54:38.137Z,6.08
2019-03-26T14:57:09.871Z,5.45
2019-03-26T15:02:10.220Z,6.95
2019-03-26T15:04:41.113Z,6.27
2019-03-26T15:07:12.590Z,7.10
2019-03-26T15:09:43.561Z,5.62
2019-03-26T15:12:15.497Z,6.85
2019-03-26T15:14:46.536Z,5.87
2019-03-26T15:17:17.979Z,6.17
2019-03-26T15:19:49.587Z,6.40
2019-03-26T15:22:20.575Z,5.83
2019-03-26T15:24:52.682Z,5.10
2019-03-26T15:27:23.438Z,6.65
2019-03-26T15:29:54.963Z,5.10
2019-03-26T15:32:26.345Z,4.53
2019-03-26T15:34:58.836Z,7.20
2019-03-26T15:37:31.031Z,6.30
2019-03-26T15:40:02.879Z,7.37
2019-03-26T15:42:34.756Z,6.10
2019-03-26T15:47:36.545Z,4.92
2019-03-26T15:52:37.830Z,9.75
2019-03-26T15:55:09.304Z,9.50
2019-03-26T15:57:40.418Z,5.17
2019-03-26T16:00:12.461Z,9.00
2019-03-26T16:02:43.613Z,6.87
2019-03-26T16:05:16.835Z,5.58
2019-03-26T16:07:47.785Z,5.70
2019-03-26T16:10:19.033Z,7.97
2019-03-26T16:12:51.039Z,5.72
2019-03-26T16:15:22.554Z,6.85
2019-03-26T16:17:54.397Z,8.00
2019-03-26T16:20:26.271Z,5.97
2019-03-26T16:25:28.046Z,5.87
2019-03-26T16:27:58.862Z,5.08
2019-03-26T16:30:30.743Z,5.45
2019-03-26T16:33:02.362Z,5.40
2019-03-26T16:35:33.499Z,4.90
2019-03-26T16:38:05.712Z,7.37
2019-03-26T16:40:37.152Z,8.25
2019-03-26T16:43:08.280Z,8.85
2019-03-26T16:45:40.651Z,5.55
2019-03-26T16:48:11.956Z,7.55
2019-03-26T16:50:43.511Z,8.65
2019-03-26T16:55:45.307Z,8.93
2019-03-26T16:58:17.067Z,5.15
2019-03-26T17:03:30.411Z,6.65
2019-03-26T17:05:50.645Z,5.55
2019-03-26T17:08:22.803Z,6.00
2019-03-26T17:10:54.663Z,5.30
2019-03-26T17:15:55.832Z,7.35
2019-03-26T17:18:27.349Z,8.83
2019-03-26T17:20:58.699Z,8.83
2019-03-26T17:23:31.286Z,8.93
2019-03-26T17:26:02.491Z,8.65
2019-03-26T17:28:33.744Z,7.83
2019-03-26T17:31:06.189Z,7.12
2019-03-26T17:33:37.399Z,7.50
2019-03-26T17:36:09.140Z,6.75
2019-03-26T17:38:40.739Z,10.53
2019-03-26T17:41:12.058Z,9.08
2019-03-26T17:43:44.219Z,9.30
2019-03-26T17:46:16.318Z,8.45
2019-03-26T17:48:48.523Z,7.37
2019-03-26T17:51:19.880Z,9.05
2019-03-26T17:53:51.745Z,8.85
2019-03-26T17:56:23.331Z,8.00
2019-03-26T17:58:54.150Z,8.40
2019-03-26T18:01:25.567Z,8.23
2019-03-26T18:03:56.836Z,6.42
2019-03-26T18:06:28.592Z,7.40
2019-03-26T18:11:29.586Z,6.03
2019-03-26T18:14:00.956Z,9.33
2019-03-26T18:16:32.783Z,10.32
2019-03-26T18:21:34.948Z,8.58
2019-03-26T18:26:36.105Z,8.78
2019-03-26T18:29:07.144Z,7.90
2019-03-26T18:31:37.960Z,8.87
2019-03-26T18:34:10.005Z,7.85
2019-03-26T18:36:41.042Z,8.83
2019-03-26T18:39:12.229Z,9.03
2019-03-26T18:41:43.897Z,9.88
2019-03-26T18:44:15.823Z,8.13
2019-03-26T18:49:16.791Z,7.80
2019-03-26T18:51:48.283Z,7.80
2019-03-26T18:54:20.162Z,7.72
2019-03-26T18:59:22.329Z,9.60
2019-03-26T19:01:53.657Z,11.97
2019-03-26T19:04:24.495Z,8.58
2019-03-26T19:06:55.661Z,9.37
2019-03-26T19:09:26.798Z,8.53
2019-03-26T19:11:58.766Z,9.60
2019-03-26T19:14:32.055Z,7.95
2019-03-26T19:17:04.019Z,8.88
2019-03-26T19:19:34.868Z,8.53
2019-03-26T19:22:06.475Z,8.48
2019-03-26T19:24:38.153Z,10.00
2019-03-26T19:27:09.638Z,8.38
2019-03-26T19:29:41.137Z,10.18
2019-03-26T19:32:12.759Z,12.75
2019-03-26T19:34:43.916Z,8.98
2019-03-26T19:37:15.315Z,8.98
2019-03-26T19:39:46.575Z,9.28
2019-03-26T19:42:18.141Z,9.53
2019-03-26T19:44:49.937Z,10.15
2019-03-26T19:47:21.500Z,10.88
2019-03-26T19:49:52.804Z,10.98
2019-03-26T19:52:23.613Z,10.05
2019-03-26T19:57:26.228Z,9.20
2019-03-26T19:59:58.472Z,8.08
2019-03-26T20:02:31.850Z,10.63
2019-03-26T20:05:04.951Z,9.15
2019-03-26T20:07:36.458Z,12.37
2019-03-26T20:10:09.372Z,10.18
2019-03-26T20:12:40.525Z,10.82
2019-03-26T20:15:12.306Z,8.48
2019-03-26T20:17:43.654Z,7.83
2019-03-26T20:20:15.562Z,10.35
2019-03-26T20:22:47.925Z,7.65
2019-03-26T20:25:18.779Z,10.23
2019-03-26T20:27:50.002Z,10.40
2019-03-26T20:30:21.310Z,13.25
2019-03-26T20:32:53.059Z,9.60
2019-03-26T20:37:54.609Z,9.88
2019-03-26T20:40:26.762Z,8.13
2019-03-26T20:42:57.639Z,9.38
2019-03-26T20:45:28.896Z,7.80
2019-03-26T20:48:01.498Z,9.53
2019-03-26T20:50:33.031Z,11.40
2019-03-26T20:53:04.505Z,9.53
2019-03-26T20:55:36.188Z,11.28
2019-03-26T20:58:07.160Z,11.03
2019-03-26T21:00:42.934Z,9.23
2019-03-26T21:03:13.990Z,9.38
2019-03-26T21:05:46.246Z,9.87
2019-03-26T21:08:17.388Z,10.25
2019-03-26T21:10:49.690Z,9.25
2019-03-26T21:13:23.403Z,8.73
2019-03-26T21:15:57.353Z,9.15
2019-03-26T21:18:46.364Z,9.93
2019-03-26T21:21:18.438Z,10.68
2019-03-26T21:23:51.420Z,10.88
2019-03-26T21:26:24.795Z,9.33
2019-03-26T21:28:56.201Z,9.55
2019-03-26T21:31:27.111Z,11.48
2019-03-26T21:33:58.246Z,9.13
2019-03-26T21:36:32.006Z,9.13
2019-03-26T21:39:09.377Z,9.90
2019-03-26T21:41:40.862Z,8.48
2019-03-26T21:44:11.789Z,8.75
2019-03-26T21:46:42.662Z,10.60
2019-03-26T21:49:14.278Z,9.87
2019-03-26T21:51:46.026Z,10.72
2019-03-26T21:54:17.336Z,11.25
2019-03-26T21:56:49.132Z,9.38
2019-03-26T21:59:20.260Z,8.93
2019-03-26T22:01:51.166Z,10.65
2019-03-26T22:04:21.987Z,13.57
2019-03-26T22:06:55.626Z,10.70
2019-03-26T22:09:27.128Z,11.18
2019-03-26T22:11:59.152Z,11.05
2019-03-26T22:14:29.982Z,10.10
2019-03-26T22:17:00.751Z,12.82
2019-03-26T22:19:31.580Z,11.53
2019-03-26T22:22:02.416Z,13.72
2019-03-26T22:24:33.634Z,11.47
2019-03-26T22:27:05.946Z,11.50
2019-03-26T22:29:36.730Z,11.48
2019-03-26T22:32:08.350Z,10.72
2019-03-26T22:34:39.143Z,9.45
2019-03-26T22:37:10.424Z,16.10
2019-03-26T22:39:41.613Z,12.25
2019-03-26T22:42:12.821Z,12.65
2019-03-26T22:44:44.236Z,10.58
2019-03-26T22:47:15.070Z,13.45
2019-03-26T22:49:45.871Z,11.00
2019-03-26T22:52:17.368Z,12.28
2019-03-26T22:54:48.834Z,12.20
2019-03-26T22:57:20.210Z,10.78
2019-03-26T22:59:51.271Z,12.35
2019-03-26T23:02:22.110Z,10.15
2019-03-26T23:04:52.965Z,11.80
2019-03-26T23:07:24.609Z,12.45
2019-03-26T23:12:26.149Z,14.98
2019-03-26T23:14:57.215Z,13.50
2019-03-26T23:17:28.077Z,13.85
2019-03-26T23:19:59.007Z,15.30
2019-03-26T23:22:30.066Z,15.07
2019-03-26T23:25:00.873Z,16.50
2019-03-26T23:27:32.298Z,15.80
2019-03-26T23:30:03.958Z,17.55
2019-03-26T23:35:05.828Z,13.08
2019-03-26T23:37:37.586Z,16.70
2019-03-26T23:42:39.766Z,17.45
2019-03-26T23:45:10.972Z,13.53
2019-03-26T23:47:42.627Z,14.18
2019-03-26T23:50:13.631Z,16.55
2019-03-26T23:52:44.981Z,14.78
2019-03-26T23:55:16.040Z,13.62
2019-03-26T23:57:47.065Z,15.60
